DW0425 Hajer DK current weather conditions

sailwx.info

Wind from 309 at 8 knots gusting 10

Air temperature 4.4° C
Dewpoint 1.6° C

Last reported at 2019-Mar-25 23:01 UTC.
Time now 2019-Mar-25 23:55 UTC

Location: N 54°58' E 008°41'.
View on Google Maps.

See reports from other nearby stations

  
Tides and Currents Weather Stations Pressure Air Temp Water Temp Dewpoint Dewpoint Depression Visibility Wind Speed Wind Dir Waves Ship Positions
date/time (UTC)wind fromknots sea level pressurealtimeterstation pressurevisibilityair tempwater tempwave heightnotes
2019-Mar-25 23:01 309 8 gusting 10 4.4
2019-Mar-25 22:31 328 11 gusting 16 5.0
2019-Mar-25 22:16 304 12 gusting 19 5.0
2019-Mar-25 21:46 324 12 gusting 18 5.0
2019-Mar-25 21:01 311 12 gusting 21 5.6
2019-Mar-25 20:31 308 10 gusting 15 5.6
2019-Mar-25 20:01 317 13 gusting 19 5.6
2019-Mar-25 19:46 325 11 gusting 19 5.6
2019-Mar-25 19:31 331 9 gusting 13 5.0
2019-Mar-25 19:01 311 8 gusting 15 5.6
2019-Mar-25 18:16 337 9 gusting 14 5.6
2019-Mar-25 17:46 325 9 gusting 16 6.1
2019-Mar-25 17:31 313 9 gusting 15 6.7
2019-Mar-25 17:16 336 9 gusting 16 7.2
2019-Mar-25 16:46 326 10 gusting 17 7.8
2019-Mar-25 16:31 339 12 gusting 20 8.3
2019-Mar-25 16:16 313 10 gusting 17 9.4
2019-Mar-25 15:46 012 9 gusting 17 9.4
2019-Mar-25 15:16 005 13 gusting 18 10.0
2019-Mar-25 15:01 355 13 gusting 19 10.0
2019-Mar-25 14:46 355 13 gusting 21 9.4
2019-Mar-25 14:16 355 12 gusting 19 8.9
2019-Mar-25 14:01 355 10 gusting 17 9.4
2019-Mar-25 13:16 346 13 gusting 17 8.9
2019-Mar-25 11:46 360 13 gusting 18 8.3
2019-Mar-25 11:16 355 13 gusting 21 8.9
2019-Mar-25 11:01 345 13 gusting 20 8.3
2019-Mar-25 10:31 344 11 gusting 15 6.7
2019-Mar-25 10:01 337 10 gusting 17 6.7
2019-Mar-25 09:46 304 15 gusting 27 6.7
2019-Mar-25 07:46 319 11 gusting 18 6.1
2019-Mar-25 07:01 316 9 gusting 17 5.0
2019-Mar-25 06:31 317 12 gusting 16 4.4
2019-Mar-25 06:01 294 8 gusting 14 3.9
2019-Mar-25 05:01 293 9 gusting 14 5.0
2019-Mar-25 04:46 306 8 gusting 13 4.4
2019-Mar-25 04:31 292 10 gusting 16 5.0
2019-Mar-25 03:46 291 9 gusting 14 4.4
2019-Mar-25 03:01 312 13 gusting 20 4.4
2019-Mar-25 02:16 288 13 gusting 20 4.4
2019-Mar-25 02:01 300 14 gusting 20 4.4
2019-Mar-25 01:46 287 12 gusting 18 3.9
2019-Mar-25 01:31 295 10 gusting 15 3.9
2019-Mar-25 01:16 290 9 gusting 13 3.3
2019-Mar-25 00:31 290 9 gusting 16 3.9
2019-Mar-25 00:01 316 7 gusting 13 3.9
2019-Mar-24 22:31 236 14 gusting 21 5.6
2019-Mar-24 22:16 240 13 gusting 21 6.1
2019-Mar-24 22:01 239 12 gusting 21 6.1
2019-Mar-24 21:46 245 13 gusting 21 6.1
2019-Mar-24 21:01 259 13 gusting 21 6.1
2019-Mar-24 20:46 259 15 gusting 24 6.1
2019-Mar-24 20:31 249 14 gusting 21 6.1
2019-Mar-24 20:01 247 13 gusting 19 6.1
2019-Mar-24 19:16 260 13 gusting 20 6.1
2019-Mar-24 19:01 250 12 gusting 18 6.1
2019-Mar-24 18:46 261 13 gusting 19 6.1
2019-Mar-24 18:31 242 12 gusting 19 6.1
2019-Mar-24 18:01 240 13 gusting 21 6.1
2019-Mar-24 17:46 272 13 gusting 19 6.7
2019-Mar-24 17:31 262 13 gusting 20 6.7
2019-Mar-24 17:16 231 13 gusting 20 6.7
2019-Mar-24 17:01 263 12 gusting 19 6.7
2019-Mar-24 16:31 262 13 gusting 19 6.7
2019-Mar-24 16:01 266 13 gusting 19 6.7
2019-Mar-24 15:46 235 13 gusting 19 6.7
2019-Mar-24 15:31 244 13 gusting 18 7.2
2019-Mar-24 15:01 271 13 gusting 19 7.2
2019-Mar-24 14:31 254 13 gusting 20 7.2
2019-Mar-24 14:16 261 13 gusting 19 7.8
2019-Mar-24 13:46 259 12 gusting 17 7.8
2019-Mar-24 13:31 286 12 gusting 18 7.8
2019-Mar-24 13:01 254 11 gusting 17 7.8
2019-Mar-24 12:46 269 12 gusting 18 8.3
2019-Mar-24 12:31 271 12 gusting 19 7.8
2019-Mar-24 12:16 273 12 gusting 19 7.8
2019-Mar-24 12:01 265 11 gusting 19 7.8
2019-Mar-24 11:46 269 11 gusting 15 7.8
2019-Mar-24 11:31 247 11 gusting 17 7.8
2019-Mar-24 11:01 257 10 gusting 17 7.8
2019-Mar-24 10:46 257 11 gusting 16 7.8
2019-Mar-24 10:31 288 10 gusting 13 7.2
2019-Mar-24 10:01 289 9 gusting 13 7.2
2019-Mar-24 09:16 271 9 gusting 14 6.7
2019-Mar-24 09:01 256 7 gusting 12 6.7
2019-Mar-24 08:46 261 7 gusting 11 6.1
2019-Mar-24 08:31 259 7 gusting 11 6.1
2019-Mar-24 08:16 259 6 gusting 10 6.1
2019-Mar-24 08:01 264 7 gusting 11 5.6
2019-Mar-24 07:46 248 6 gusting 9 5.6
2019-Mar-24 07:31 238 6 gusting 9 5.6
2019-Mar-24 07:16 248 6 gusting 8 5.6
2019-Mar-24 06:16 255 4 gusting 6 5.0
2019-Mar-24 06:01 249 4 gusting 6 5.0
2019-Mar-24 05:46 253 4 gusting 6 5.0
2019-Mar-24 05:31 258 4 gusting 6 5.0
2019-Mar-24 05:16 269 3 gusting 6 5.0
2019-Mar-24 05:01 275 3 gusting 6 5.0
2019-Mar-24 04:46 274 3 gusting 6 5.0
2019-Mar-24 04:31 274 4 gusting 6 5.0
2019-Mar-24 04:16 285 6 gusting 8 5.0
2019-Mar-24 04:01 277 6 gusting 8 5.0
2019-Mar-24 03:01 277 4 gusting 6 5.0
2019-Mar-24 02:46 281 4 gusting 6 5.0
2019-Mar-24 02:01 281 5 gusting 6 5.0
2019-Mar-24 01:31 286 5 gusting 7 5.0
2019-Mar-24 01:01 294 4 gusting 6 4.4
2019-Mar-24 00:46 290 4 gusting 5 4.4
2019-Mar-24 00:31 288 4 gusting 6 4.4
2019-Mar-23 23:46 281 5 gusting 8 4.4
2019-Mar-23 23:31 285 6 gusting 8 5.0
2019-Mar-23 23:16 281 5 gusting 7 5.0
2019-Mar-23 23:01 288 5 gusting 7 5.0